createdAt,value
2023-03-25T00:01:18.530Z,5.82
2023-03-25T00:03:50.959Z,5.95
2023-03-25T00:06:18.424Z,4.95
2023-03-25T00:08:45.958Z,4.28
2023-03-25T00:11:12.984Z,4.70
2023-03-25T00:13:40.829Z,3.90
2023-03-25T00:16:10.294Z,3.97
2023-03-25T00:18:37.779Z,3.80
2023-03-25T00:21:05.614Z,3.85
2023-03-25T00:23:32.915Z,3.83
2023-03-25T00:26:03.256Z,3.63
2023-03-25T00:28:35.775Z,3.83
2023-03-25T00:31:07.214Z,3.03
2023-03-25T00:33:35.378Z,3.55
2023-03-25T00:36:04.911Z,3.97
2023-03-25T00:38:35.159Z,3.55
2023-03-25T00:41:25.320Z,3.22
2023-03-25T00:43:57.268Z,3.50
2023-03-25T00:46:28.863Z,2.83
2023-03-25T00:48:58.313Z,3.65
2023-03-25T00:51:26.816Z,3.17
2023-03-25T00:53:56.118Z,3.22
2023-03-25T00:56:24.510Z,3.20
2023-03-25T00:58:51.528Z,3.03
2023-03-25T01:01:23.829Z,2.90
2023-03-25T01:03:57.728Z,2.90
2023-03-25T01:06:32.431Z,3.60
2023-03-25T01:09:01.042Z,2.90
2023-03-25T01:11:34.608Z,2.92
2023-03-25T01:14:02.755Z,2.83
2023-03-25T01:16:29.950Z,2.95
2023-03-25T01:18:56.872Z,2.90
2023-03-25T01:21:25.363Z,4.15
2023-03-25T01:23:52.292Z,3.08
2023-03-25T01:26:19.161Z,2.60
2023-03-25T01:28:46.929Z,2.88
2023-03-25T01:31:14.969Z,2.70
2023-03-25T01:33:42.313Z,2.70
2023-03-25T01:36:12.875Z,2.85
2023-03-25T01:38:41.239Z,2.72
2023-03-25T01:41:10.132Z,2.88
2023-03-25T01:43:37.111Z,3.28
2023-03-25T01:46:04.657Z,2.85
2023-03-25T01:48:40.697Z,2.97
2023-03-25T01:51:30.326Z,2.80
2023-03-25T01:53:57.645Z,2.85
2023-03-25T01:56:30.926Z,2.75
2023-03-25T01:59:00.914Z,3.35
2023-03-25T02:01:28.345Z,2.72
2023-03-25T02:04:03.031Z,3.25
2023-03-25T02:06:47.923Z,3.15
2023-03-25T02:09:18.145Z,2.80
2023-03-25T02:11:45.329Z,3.13
2023-03-25T02:14:16.438Z,3.50
2023-03-25T02:17:07.732Z,3.47
2023-03-25T02:20:09.344Z,3.17
2023-03-25T02:23:07.669Z,3.05
2023-03-25T02:25:59.820Z,2.67
2023-03-25T02:28:52.682Z,3.20
2023-03-25T02:31:47.073Z,3.05
2023-03-25T02:34:41.929Z,3.17
2023-03-25T02:37:36.577Z,2.95
2023-03-25T02:40:11.006Z,3.25
2023-03-25T02:42:53.780Z,3.08
2023-03-25T02:45:28.034Z,3.60
2023-03-25T02:48:00.892Z,3.58
2023-03-25T02:50:34.415Z,3.42
2023-03-25T02:53:08.779Z,3.30
2023-03-25T02:55:41.515Z,3.45
2023-03-25T02:58:13.089Z,3.38
2023-03-25T03:00:40.595Z,3.75
2023-03-25T03:03:09.097Z,3.40
2023-03-25T03:05:39.814Z,3.67
2023-03-25T03:08:19.703Z,3.80
2023-03-25T03:11:16.789Z,3.72
2023-03-25T03:13:49.773Z,3.17
2023-03-25T03:16:27.114Z,3.65
2023-03-25T03:19:02.291Z,3.60
2023-03-25T03:21:40.063Z,3.28
2023-03-25T03:24:16.954Z,3.90
2023-03-25T03:26:55.963Z,3.88
2023-03-25T03:29:43.820Z,4.00
2023-03-25T03:32:21.005Z,3.63
2023-03-25T03:35:02.391Z,3.38
2023-03-25T03:37:39.902Z,3.78
2023-03-25T03:40:13.599Z,3.53
2023-03-25T03:42:45.185Z,3.75
2023-03-25T03:45:25.472Z,4.20
2023-03-25T03:47:56.863Z,3.20
2023-03-25T03:50:31.674Z,3.05
2023-03-25T03:53:36.445Z,3.28
2023-03-25T03:58:44.499Z,4.03
2023-03-25T04:01:11.434Z,4.70
2023-03-25T04:04:06.387Z,3.55
2023-03-25T04:06:38.636Z,3.65
2023-03-25T04:09:41.913Z,4.05
2023-03-25T04:12:16.035Z,3.97
2023-03-25T04:14:43.300Z,5.13
2023-03-25T04:17:10.583Z,4.00
2023-03-25T04:19:37.717Z,4.47
2023-03-25T04:22:05.648Z,4.80
2023-03-25T04:24:33.008Z,4.18
2023-03-25T04:27:03.602Z,4.25
2023-03-25T04:29:33.948Z,4.30
2023-03-25T04:32:01.648Z,4.60
2023-03-25T04:34:28.931Z,4.47
2023-03-25T04:36:57.989Z,4.95
2023-03-25T04:39:25.811Z,4.80
2023-03-25T04:41:53.886Z,4.45
2023-03-25T04:44:22.035Z,4.30
2023-03-25T04:46:49.139Z,4.63
2023-03-25T04:49:21.675Z,4.60
2023-03-25T04:51:51.519Z,4.60
2023-03-25T04:54:20.867Z,4.68
2023-03-25T04:56:49.801Z,4.50
2023-03-25T04:59:24.350Z,4.43
2023-03-25T05:01:52.799Z,4.80
2023-03-25T05:04:20.515Z,4.45
2023-03-25T05:06:50.605Z,4.40
2023-03-25T05:09:24.901Z,5.30
2023-03-25T05:11:53.583Z,5.00
2023-03-25T05:14:22.171Z,4.70
2023-03-25T05:16:49.549Z,4.97
2023-03-25T05:19:19.000Z,4.72
2023-03-25T05:21:46.498Z,4.68
2023-03-25T05:24:13.701Z,4.72
2023-03-25T05:26:42.389Z,4.97
2023-03-25T05:29:14.353Z,5.05
2023-03-25T05:31:46.398Z,6.32
2023-03-25T05:34:17.085Z,10.45
2023-03-25T05:36:44.393Z,14.68
2023-03-25T05:39:11.391Z,13.27
2023-03-25T05:41:41.685Z,14.63
2023-03-25T05:44:15.347Z,15.20
2023-03-25T05:46:42.547Z,10.88
2023-03-25T05:49:09.498Z,10.52
2023-03-25T05:51:39.229Z,9.80
2023-03-25T05:54:11.803Z,7.57
2023-03-25T05:56:39.365Z,7.17
2023-03-25T05:59:06.361Z,6.30
2023-03-25T06:01:37.826Z,6.97
2023-03-25T06:04:04.977Z,5.78
2023-03-25T06:06:34.193Z,4.78
2023-03-25T06:09:02.422Z,4.50
2023-03-25T06:11:29.833Z,4.25
2023-03-25T06:13:56.996Z,4.10
2023-03-25T06:16:29.875Z,4.38
2023-03-25T06:19:00.300Z,4.57
2023-03-25T06:21:29.737Z,4.80
2023-03-25T06:23:59.546Z,4.38
2023-03-25T06:26:26.842Z,4.38
2023-03-25T06:28:54.873Z,5.78
2023-03-25T06:31:26.555Z,4.20
2023-03-25T06:33:54.752Z,4.40
2023-03-25T06:36:21.744Z,3.95
2023-03-25T06:38:50.433Z,4.15
2023-03-25T06:44:03.290Z,4.60
